Time;durP1;ratioP1;P1;durP2;ratioP2;P2;SDS_P1;SDS_P2;PMS_P1;PMS_P2;Temp;Humidity;BMP_temperature;BMP_pressure;BME280_temperature;BME280_humidity;BME280_pressure;Samples;Min_cycle;Max_cycle;Signal;HPM_P1;HPM_P2
2022/12/01 00:02:01;;;;;;;;;;;;;;;7.03;56.13;102104.06;5049509;28;19954;-56
2022/12/01 00:04:26;;;;;;;;;;;;;;;7.05;56.14;102102.34;5047750;28;21631;-55
2022/12/01 00:06:51;;;;;;;;;;;;;;;7.04;56.13;102097.97;5041603;28;19951;-55
2022/12/01 00:12:00;;;;;;;;;;;;;;;7.01;56.25;102098.78;5035900;28;20288;-55
2022/12/01 00:14:25;;;;;;;;;;;;;;;7.04;56.26;102101.47;5042027;28;19924;-54
2022/12/01 00:16:51;;;;;;;;;;;;;;;7.00;56.25;102096.16;5049319;28;20292;-55
2022/12/01 00:19:16;;;;;;;;;;;;;;;6.97;56.43;102091.75;5035459;28;20012;-56
2022/12/01 00:21:42;;;;;;;;;;;;;;;6.99;56.40;102095.28;5040685;28;19925;-55
2022/12/01 00:24:08;;;;;;;;;;;;;;;7.00;56.23;102093.53;5050217;28;20456;-56
2022/12/01 00:26:33;;;;;;;;;;;;;;;6.94;56.44;102088.19;5048454;28;20004;-56
2022/12/01 00:28:58;;;;;;;;;;;;;;;6.90;56.57;102095.06;5042684;28;20012;-56
2022/12/01 00:31:24;;;;;;;;;;;;;;;6.98;56.49;102098.75;5036766;28;19925;-56
2022/12/01 00:33:49;;;;;;;;;;;;;;;7.02;56.24;102089.22;5035245;28;19921;-59
2022/12/01 00:36:15;;;;;;;;;;;;;;;7.06;56.19;102086.72;5039411;28;20384;-55
2022/12/01 00:38:40;;;;;;;;;;;;;;;7.06;56.09;102091.94;5040897;28;19921;-55
2022/12/01 00:41:06;;;;;;;;;;;;;;;7.03;55.90;102086.66;5043046;28;20009;-58
2022/12/01 00:43:31;;;;;;;;;;;;;;;7.07;55.99;102088.47;5048258;28;19936;-56
2022/12/01 00:45:57;;;;;;;;;;;;;;;7.09;55.77;102085.88;5051348;28;19967;-57
2022/12/01 00:48:22;;;;;;;;;;;;;;;7.08;55.76;102085.00;5051426;28;19920;-57
2022/12/01 00:50:49;;;;;;;;;;;;;;;7.10;56.06;102085.00;5049894;28;19999;-55
2022/12/01 00:53:14;;;;;;;;;;;;;;;7.12;55.87;102085.94;5039474;28;19936;-56
2022/12/01 00:55:40;;;;;;;;;;;;;;;7.04;55.99;102083.19;5037231;28;19921;-56
2022/12/01 00:58:06;;;;;;;;;;;;;;;7.07;55.94;102088.47;5039664;28;19932;-55
2022/12/01 01:00:31;;;;;;;;;;;;;;;7.07;55.87;102084.97;5043792;28;19987;-56
2022/12/01 01:02:56;;;;;;;;;;;;;;;7.05;56.05;102087.53;5053727;28;19929;-56
2022/12/01 01:05:22;;;;;;;;;;;;;;;7.01;56.25;102087.47;5048016;28;19925;-55
2022/12/01 01:07:47;;;;;;;;;;;;;;;7.04;56.33;102091.03;5045235;28;19925;-55
2022/12/01 01:10:12;;;;;;;;;;;;;;;7.10;56.13;102090.25;5052120;28;19925;-57
2022/12/01 01:12:37;;;;;;;;;;;;;;;7.08;56.08;102086.75;5050928;28;19925;-54
2022/12/01 01:15:04;;;;;;;;;;;;;;;6.99;56.15;102082.22;5052204;28;20407;-57
2022/12/01 01:17:31;;;;;;;;;;;;;;;7.00;56.25;102086.59;5051740;28;19921;-56
2022/12/01 01:19:56;;;;;;;;;;;;;;;6.94;56.34;102089.06;5050744;28;19932;-55
2022/12/01 01:22:21;;;;;;;;;;;;;;;6.97;56.04;102085.63;5040742;28;19933;-54
2022/12/01 01:24:46;;;;;;;;;;;;;;;6.88;56.24;102088.94;5049563;28;19959;-55
2022/12/01 01:27:12;;;;;;;;;;;;;;;6.90;56.41;102087.22;5051681;28;19925;-59
2022/12/01 01:29:37;;;;;;;;;;;;;;;6.92;56.47;102088.16;5052258;28;19925;-55
2022/12/01 01:32:03;;;;;;;;;;;;;;;6.94;56.29;102089.06;5052147;28;20265;-55
2022/12/01 01:34:28;;;;;;;;;;;;;;;6.96;56.25;102091.72;5050065;28;19990;-56
2022/12/01 01:36:53;;;;;;;;;;;;;;;6.93;56.35;102089.91;5041561;28;20288;-55
2022/12/01 01:39:18;;;;;;;;;;;;;;;7.01;56.30;102090.06;5041336;28;19928;-54
2022/12/01 01:41:44;;;;;;;;;;;;;;;7.11;56.23;102095.53;5052321;28;19979;-57
2022/12/01 01:44:28;;;;;;;;;;;;;;;7.16;55.94;102093.00;5052269;28;20457;-56
2022/12/01 01:46:54;;;;;;;;;;;;;;;7.18;56.01;102095.63;5042093;28;19921;-55
2022/12/01 01:49:19;;;;;;;;;;;;;;;7.11;55.93;102090.28;5039205;28;19925;-58
2022/12/01 01:51:48;;;;;;;;;;;;;;;7.10;56.00;102091.16;5036427;28;20282;-59
2022/12/01 01:54:18;;;;;;;;;;;;;;;7.11;55.84;102090.28;5040928;28;19921;-56
2022/12/01 01:56:44;;;;;;;;;;;;;;;7.10;55.73;102088.53;5039401;28;19947;-57
2022/12/01 01:59:12;;;;;;;;;;;;;;;7.03;55.90;102091.88;5046114;28;19968;-56
2022/12/01 02:01:37;;;;;;;;;;;;;;;7.02;55.65;102084.91;5039854;28;19924;-55
2022/12/01 02:04:03;;;;;;;;;;;;;;;6.98;55.76;102088.31;5050809;28;19931;-56
2022/12/01 02:06:28;;;;;;;;;;;;;;;6.99;56.09;102087.44;5046973;28;19925;-56
2022/12/01 02:08:53;;;;;;;;;;;;;;;6.99;56.10;102087.44;5047908;28;20343;-54
2022/12/01 02:11:18;;;;;;;;;;;;;;;7.08;55.89;102086.75;5044771;28;19924;-54
2022/12/01 02:14:04;;;;;;;;;;;;;;;7.01;55.87;102082.22;5052337;28;19928;-56
2022/12/01 02:16:39;;;;;;;;;;;;;;;7.08;55.18;102082.38;5043034;28;19968;-56
2022/12/01 02:19:22;;;;;;;;;;;;;;;7.12;55.02;102081.59;5041044;28;19921;-57
2022/12/01 02:22:06;;;;;;;;;;;;;;;7.14;54.97;102079.00;5051940;28;19920;-57
2022/12/01 02:24:46;;;;;;;;;;;;;;;7.14;55.21;102079.91;5046061;28;20160;-55
2022/12/01 02:27:30;;;;;;;;;;;;;;;7.07;55.25;102072.78;5050435;28;19932;-58
2022/12/01 02:29:56;;;;;;;;;;;;;;;7.10;55.30;102077.19;5042661;28;19960;-56
2022/12/01 02:32:39;;;;;;;;;;;;;;;7.08;55.55;102077.16;5039606;28;20350;-55
2022/12/01 02:35:28;;;;;;;;;;;;;;;7.08;55.69;102071.94;5037241;28;20348;-56
2022/12/01 02:38:03;;;;;;;;;;;;;;;7.00;55.87;102081.34;5037764;28;19925;-55
2022/12/01 02:40:45;;;;;;;;;;;;;;;7.04;55.76;102072.72;5046232;28;19991;-55
2022/12/01 02:43:13;;;;;;;;;;;;;;;7.06;55.77;102076.25;5039487;28;19952;-55
2022/12/01 02:45:44;;;;;;;;;;;;;;;7.02;56.17;102079.66;5038573;28;20014;-56
2022/12/01 02:48:33;;;;;;;;;;;;;;;7.03;55.82;102081.44;5035563;28;19921;-55
2022/12/01 02:51:13;;;;;;;;;;;;;;;7.07;55.77;102077.16;5034062;28;19923;-55
2022/12/01 02:53:38;;;;;;;;;;;;;;;7.08;55.70;102077.16;5044248;28;19921;-56
2022/12/01 02:56:05;;;;;;;;;;;;;;;7.11;55.34;102076.34;5049780;28;19925;-56
2022/12/01 02:58:30;;;;;;;;;;;;;;;7.06;55.70;102076.25;5037896;28;19921;-56
2022/12/01 03:01:11;;;;;;;;;;;;;;;7.04;55.47;102080.56;5037531;28;19921;-56
2022/12/01 03:03:43;;;;;;;;;;;;;;;7.09;55.30;102085.88;5038144;28;19925;-56
2022/12/01 03:06:12;;;;;;;;;;;;;;;7.06;55.26;102083.19;5038224;28;19923;-56
2022/12/01 03:08:58;;;;;;;;;;;;;;;7.10;54.99;102091.16;5049727;28;19921;-55
2022/12/01 03:11:31;;;;;;;;;;;;;;;7.07;55.12;102085.84;5036979;28;19925;-56
2022/12/01 03:14:03;;;;;;;;;;;;;;;7.06;55.26;102081.50;5037602;28;19964;-55
2022/12/01 03:16:28;;;;;;;;;;;;;;;7.11;55.26;102079.84;5048389;28;19944;-57
2022/12/01 03:19:05;;;;;;;;;;;;;;;7.12;54.99;102085.94;5038720;28;20368;-54
2022/12/01 03:21:34;;;;;;;;;;;;;;;7.12;54.80;102078.97;5037907;28;19936;-56
2022/12/01 03:24:09;;;;;;;;;;;;;;;7.14;54.78;102079.00;5036054;28;19922;-56
2022/12/01 03:26:36;;;;;;;;;;;;;;;7.08;54.61;102074.53;5037612;28;20339;-55
2022/12/01 03:29:04;;;;;;;;;;;;;;;7.13;54.60;102083.34;5036124;28;20385;-57
2022/12/01 03:31:36;;;;;;;;;;;;;;;7.07;54.78;102083.25;5047252;28;20276;-54
2022/12/01 03:34:23;;;;;;;;;;;;;;;7.01;54.67;102083.09;5050974;28;19952;-55
2022/12/01 03:36:57;;;;;;;;;;;;;;;6.99;54.76;102082.22;5049603;28;19990;-55
2022/12/01 03:39:24;;;;;;;;;;;;;;;6.97;54.59;102081.28;5049404;28;20027;-54
2022/12/01 03:42:00;;;;;;;;;;;;;;;7.03;54.54;102075.31;5036238;28;19921;-55
2022/12/01 03:44:29;;;;;;;;;;;;;;;6.99;54.66;102078.72;5037308;28;20016;-56
2022/12/01 03:47:03;;;;;;;;;;;;;;;6.99;54.89;102074.38;5041431;28;20404;-55
2022/12/01 03:49:29;;;;;;;;;;;;;;;7.03;54.88;102072.69;5037522;28;19921;-56
2022/12/01 03:51:54;;;;;;;;;;;;;;;7.07;54.53;102072.78;5036391;28;19971;-56
2022/12/01 03:54:35;;;;;;;;;;;;;;;7.08;54.45;102073.66;5046446;28;20350;-54
2022/12/01 03:57:03;;;;;;;;;;;;;;;6.98;54.67;102071.72;5049831;28;19966;-55
2022/12/01 03:59:29;;;;;;;;;;;;;;;6.98;54.91;102070.00;5048034;28;20023;-57
2022/12/01 04:01:56;;;;;;;;;;;;;;;7.04;54.67;102070.09;5050511;28;20300;-55
2022/12/01 04:04:21;;;;;;;;;;;;;;;7.03;54.65;102065.75;5041824;28;19982;-55
2022/12/01 04:06:48;;;;;;;;;;;;;;;7.13;54.29;102062.44;5049052;28;20380;-55
2022/12/01 04:09:14;;;;;;;;;;;;;;;7.20;54.27;102066.06;5036926;28;20004;-55
2022/12/01 04:14:23;;;;;;;;;;;;;;;7.17;54.12;102052.91;5033439;28;19975;-56
2022/12/01 04:16:48;;;;;;;;;;;;;;;7.16;54.08;102053.78;5047742;28;20323;-56
2022/12/01 04:19:14;;;;;;;;;;;;;;;7.20;54.27;102063.44;5052174;28;19924;-55
2022/12/01 04:21:39;;;;;;;;;;;;;;;7.15;54.31;102055.53;5052880;28;19950;-55
2022/12/01 04:24:05;;;;;;;;;;;;;;;7.12;54.68;102058.06;5053385;28;20399;-53
2022/12/01 04:26:31;;;;;;;;;;;;;;;6.91;55.30;102068.13;5052026;28;19947;-57
2022/12/01 04:28:58;;;;;;;;;;;;;;;6.98;55.19;102067.38;5053831;28;19959;-56
2022/12/01 04:31:23;;;;;;;;;;;;;;;6.98;55.28;102071.72;5053617;28;20011;-56
2022/12/01 04:33:48;;;;;;;;;;;;;;;6.98;55.24;102072.63;5052679;28;20020;-54
2022/12/01 04:36:14;;;;;;;;;;;;;;;7.00;55.13;102070.91;5052051;28;20355;-55
2022/12/01 04:38:39;;;;;;;;;;;;;;;7.03;54.95;102073.59;5052970;28;19970;-57
2022/12/01 04:41:09;;;;;;;;;;;;;;;7.07;54.72;102074.53;5045739;28;19928;-56
2022/12/01 04:43:34;;;;;;;;;;;;;;;7.00;54.44;102077.88;5039725;28;19920;-54
2022/12/01 04:45:59;;;;;;;;;;;;;;;6.99;54.37;102071.75;5051220;28;19917;-54
2022/12/01 04:48:24;;;;;;;;;;;;;;;7.04;54.46;102077.06;5050654;28;19925;-53
2022/12/01 04:50:50;;;;;;;;;;;;;;;7.09;54.49;102080.66;5034362;28;20392;-54
2022/12/01 04:53:15;;;;;;;;;;;;;;;7.14;54.17;102074.69;5033157;28;20003;-54
2022/12/01 04:55:40;;;;;;;;;;;;;;;7.18;54.15;102082.56;5044144;28;19925;-55
2022/12/01 04:58:05;;;;;;;;;;;;;;;7.07;54.27;102083.25;5035104;28;20380;-56
2022/12/01 05:00:31;;;;;;;;;;;;;;;7.06;54.19;102083.19;5044160;28;19932;-54
2022/12/01 05:02:57;;;;;;;;;;;;;;;7.00;54.34;102081.34;5050425;28;19925;-53
2022/12/01 05:05:22;;;;;;;;;;;;;;;7.03;54.51;102081.44;5040179;28;20034;-51
2022/12/01 05:07:47;;;;;;;;;;;;;;;7.03;54.31;102072.69;5033914;28;20333;-54
2022/12/01 05:10:13;;;;;;;;;;;;;;;7.04;54.35;102077.06;5042875;28;19947;-54
2022/12/01 05:12:40;;;;;;;;;;;;;;;6.97;53.93;102073.44;5048060;28;19925;-56
2022/12/01 05:15:05;;;;;;;;;;;;;;;6.90;53.67;102079.41;5040136;28;19925;-54
2022/12/01 05:17:31;;;;;;;;;;;;;;;7.10;53.85;102085.00;5037520;28;20143;-56
2022/12/01 05:22:39;;;;;;;;;;;;;;;7.15;53.76;102083.41;5051546;28;19927;-57
2022/12/01 05:25:05;;;;;;;;;;;;;;;7.09;53.52;102081.53;5056875;28;19917;-54
2022/12/01 05:27:30;;;;;;;;;;;;;;;7.07;53.29;102077.16;5055599;28;19925;-52
2022/12/01 05:29:55;;;;;;;;;;;;;;;7.11;53.66;102079.84;5042588;28;19925;-55
2022/12/01 05:32:21;;;;;;;;;;;;;;;7.18;53.38;102082.56;5052320;28;20284;-55
2022/12/01 05:34:46;;;;;;;;;;;;;;;7.16;53.23;102078.19;5042719;28;19940;-57
2022/12/01 05:37:11;;;;;;;;;;;;;;;7.15;53.32;102086.88;5049641;28;19925;-52
2022/12/01 05:39:36;;;;;;;;;;;;;;;7.19;53.14;102086.97;5056644;28;19968;-55
2022/12/01 05:42:02;;;;;;;;;;;;;;;7.11;53.40;102087.69;5050275;28;20372;-54
2022/12/01 05:44:27;;;;;;;;;;;;;;;7.10;53.48;102088.53;5038179;28;19960;-55
2022/12/01 05:46:52;;;;;;;;;;;;;;;7.09;53.53;102084.13;5045519;28;19928;-55
2022/12/01 05:49:17;;;;;;;;;;;;;;;7.06;53.80;102094.56;5056316;28;19952;-54
2022/12/01 05:51:42;;;;;;;;;;;;;;;7.08;53.84;102097.19;5052482;28;20375;-55
2022/12/01 05:54:08;;;;;;;;;;;;;;;7.02;54.02;102103.19;5041641;28;20254;-54
2022/12/01 05:56:33;;;;;;;;;;;;;;;7.02;54.24;102100.56;5042072;28;19920;-56
2022/12/01 05:58:58;;;;;;;;;;;;;;;7.04;54.33;102103.22;5056347;28;19921;-56
2022/12/01 06:01:23;;;;;;;;;;;;;;;7.01;53.97;102104.00;5052022;28;19925;-56
2022/12/01 06:03:49;;;;;;;;;;;;;;;7.01;53.72;102101.41;5052355;28;19921;-54
2022/12/01 06:06:14;;;;;;;;;;;;;;;7.06;53.44;102107.63;5049690;28;20020;-55
2022/12/01 06:08:39;;;;;;;;;;;;;;;7.01;53.45;102103.13;5044586;28;19972;-56
2022/12/01 06:11:04;;;;;;;;;;;;;;;7.05;53.52;102104.97;5052993;28;19948;-56
2022/12/01 06:13:30;;;;;;;;;;;;;;;7.02;53.58;102111.03;5045985;28;20365;-53
2022/12/01 06:15:59;;;;;;;;;;;;;;;6.92;53.87;102109.06;5049924;28;20250;-54
2022/12/01 06:18:25;;;;;;;;;;;;;;;6.95;54.08;102109.13;5051129;28;20273;-56
2022/12/01 06:20:50;;;;;;;;;;;;;;;6.97;54.05;102106.53;5043287;28;19925;-54
2022/12/01 06:23:15;;;;;;;;;;;;;;;6.97;54.14;102106.53;5041947;28;20296;-54
2022/12/01 06:25:41;;;;;;;;;;;;;;;7.03;53.37;102110.16;5047226;28;19921;-54
2022/12/01 06:28:06;;;;;;;;;;;;;;;6.98;53.40;102117.03;5055655;28;19928;-55
2022/12/01 06:30:31;;;;;;;;;;;;;;;6.96;53.48;102116.13;5054694;28;20035;-55
2022/12/01 06:32:57;;;;;;;;;;;;;;;6.95;53.57;102108.25;5055259;28;20375;-59
2022/12/01 06:35:22;;;;;;;;;;;;;;;7.00;53.80;102110.09;5042718;28;19929;-55
2022/12/01 06:37:47;;;;;;;;;;;;;;;7.00;54.05;102117.94;5046469;28;20056;-54
2022/12/01 06:40:12;;;;;;;;;;;;;;;7.03;55.35;102118.00;5054749;28;20387;-53
2022/12/01 06:42:38;;;;;;;;;;;;;;;7.01;54.13;102119.69;5033165;28;19921;-55
2022/12/01 06:45:03;;;;;;;;;;;;;;;7.16;54.29;102126.97;5033786;28;19925;-57
2022/12/01 06:47:28;;;;;;;;;;;;;;;7.12;54.12;102120.81;5033521;28;20543;-54
2022/12/01 06:49:54;;;;;;;;;;;;;;;7.12;54.11;102122.53;5044143;28;19929;-52
2022/12/01 06:52:19;;;;;;;;;;;;;;;7.01;54.28;102122.31;5050205;28;19932;-58
2022/12/01 06:54:44;;;;;;;;;;;;;;;7.01;54.29;102132.78;5051765;28;19921;-55
2022/12/01 06:57:09;;;;;;;;;;;;;;;7.08;54.30;102128.56;5054140;28;19990;-54
2022/12/01 06:59:35;;;;;;;;;;;;;;;7.08;54.38;102121.59;5043809;28;19925;-55
2022/12/01 07:02:01;;;;;;;;;;;;;;;7.13;54.42;102124.31;5034244;28;19928;-57
2022/12/01 07:04:27;;;;;;;;;;;;;;;7.13;54.17;102129.53;5045097;28;19932;-57
2022/12/01 07:06:53;;;;;;;;;;;;;;;7.15;54.38;102126.09;5043826;28;19929;-56
2022/12/01 07:09:18;;;;;;;;;;;;;;;7.18;54.24;102127.00;5033607;28;20004;-55
2022/12/01 07:11:43;;;;;;;;;;;;;;;7.16;54.30;102130.47;5034903;28;20005;-54
2022/12/01 07:14:35;;;;;;;;;;;;;;;7.19;54.31;102128.78;5037765;28;19995;-56
2022/12/01 07:17:00;;;;;;;;;;;;;;;7.23;54.34;102126.25;5035528;28;19921;-55
2022/12/01 07:19:25;;;;;;;;;;;;;;;7.29;54.21;102130.72;5038927;28;20288;-52
2022/12/01 07:21:51;;;;;;;;;;;;;;;7.17;54.62;102136.56;5044238;28;19929;-54
2022/12/01 07:24:16;;;;;;;;;;;;;;;7.16;54.58;102130.47;5043620;28;19925;-57
2022/12/01 07:26:41;;;;;;;;;;;;;;;7.21;54.75;102127.06;5040798;28;19935;-55
2022/12/01 07:29:08;;;;;;;;;;;;;;;7.22;54.75;102128.81;5037897;28;19932;-55
2022/12/01 07:31:33;;;;;;;;;;;;;;;7.23;54.94;102133.22;5039737;28;20008;-55
2022/12/01 07:33:58;;;;;;;;;;;;;;;7.23;54.74;102130.63;5040136;28;19953;-57
2022/12/01 07:36:23;;;;;;;;;;;;;;;7.18;54.79;102130.50;5039484;28;19925;-55
2022/12/01 07:38:49;;;;;;;;;;;;;;;7.11;54.85;102137.34;5044018;28;20292;-55
2022/12/01 07:41:15;;;;;;;;;;;;;;;7.12;54.51;102131.25;5034619;28;20327;-55
2022/12/01 07:43:41;;;;;;;;;;;;;;;7.12;54.50;102133.00;5034465;28;19917;-56
2022/12/01 07:46:14;;;;;;;;;;;;;;;7.18;54.39;102130.50;5034593;28;19913;-55
2022/12/01 07:48:40;;;;;;;;;;;;;;;7.29;54.44;102139.44;5034326;28;19917;-56
2022/12/01 07:51:06;;;;;;;;;;;;;;;7.34;53.83;102136.91;5034256;28;19924;-56
2022/12/01 07:53:31;;;;;;;;;;;;;;;7.26;53.95;102131.56;5032450;28;19925;-56
2022/12/01 07:55:56;;;;;;;;;;;;;;;7.30;53.83;102135.09;5045274;28;19928;-55
2022/12/01 07:58:22;;;;;;;;;;;;;;;7.26;53.77;102133.25;5033467;28;19928;-54
2022/12/01 08:00:47;;;;;;;;;;;;;;;7.27;53.69;102130.69;5033362;28;20361;-53
2022/12/01 08:03:12;;;;;;;;;;;;;;;7.26;53.72;102130.66;5033801;28;19921;-55
2022/12/01 08:05:38;;;;;;;;;;;;;;;7.16;53.78;102135.69;5034152;28;19971;-56
2022/12/01 08:08:03;;;;;;;;;;;;;;;7.30;53.81;102132.47;5033967;28;19921;-55
2022/12/01 08:10:28;;;;;;;;;;;;;;;7.32;53.28;102138.63;5033966;28;19928;-54
2022/12/01 08:12:54;;;;;;;;;;;;;;;7.30;53.29;102138.63;5034228;28;19936;-55
2022/12/01 08:15:19;;;;;;;;;;;;;;;7.25;53.20;102137.63;5034050;28;20372;-55
2022/12/01 08:17:44;;;;;;;;;;;;;;;7.17;53.12;102147.03;5034616;28;19921;-53
2022/12/01 08:20:11;;;;;;;;;;;;;;;7.21;53.14;102138.41;5034392;28;20442;-52
2022/12/01 08:22:36;;;;;;;;;;;;;;;7.22;52.98;102144.50;5033875;28;20335;-55
2022/12/01 08:25:01;;;;;;;;;;;;;;;7.28;52.71;102142.03;5036436;28;19925;-53
2022/12/01 08:27:26;;;;;;;;;;;;;;;7.27;52.17;102138.53;5057831;28;19931;-55
2022/12/01 08:29:52;;;;;;;;;;;;;;;7.31;51.93;102144.72;5068613;28;19962;-54
2022/12/01 08:32:17;;;;;;;;;;;;;;;7.26;51.96;102138.50;5051453;28;19917;-51
2022/12/01 08:34:42;;;;;;;;;;;;;;;7.32;51.90;102146.47;5050176;28;19921;-55
2022/12/01 08:37:08;;;;;;;;;;;;;;;7.31;51.71;102149.94;5052319;28;20400;-55
2022/12/01 08:39:33;;;;;;;;;;;;;;;7.20;51.65;102143.63;5053583;28;19927;-53
2022/12/01 08:41:58;;;;;;;;;;;;;;;7.26;51.56;102146.34;5053814;28;19921;-54
2022/12/01 08:44:23;;;;;;;;;;;;;;;7.26;51.41;102143.72;5052465;28;20020;-55
2022/12/01 08:46:49;;;;;;;;;;;;;;;7.11;51.60;102147.81;5053689;28;20363;-53
2022/12/01 08:49:14;;;;;;;;;;;;;;;7.21;52.00;102142.75;5053733;28;20379;-53
2022/12/01 08:51:39;;;;;;;;;;;;;;;7.27;51.73;102150.75;5053530;28;19925;-53
2022/12/01 08:54:05;;;;;;;;;;;;;;;7.09;51.68;102149.50;5048866;28;19921;-56
2022/12/01 08:56:32;;;;;;;;;;;;;;;7.24;52.01;102148.94;5035153;28;19921;-56
2022/12/01 08:58:57;;;;;;;;;;;;;;;7.31;51.77;102144.72;5037668;28;19917;-56
2022/12/01 09:01:24;;;;;;;;;;;;;;;7.28;51.99;102142.91;5037640;28;20346;-57
2022/12/01 09:04:04;;;;;;;;;;;;;;;7.20;51.66;102146.22;5037456;28;19968;-55
2022/12/01 09:06:30;;;;;;;;;;;;;;;7.37;51.99;102145.69;5037229;28;19953;-57
2022/12/01 09:08:55;;;;;;;;;;;;;;;7.43;51.59;102139.72;5037575;28;19918;-55
2022/12/01 09:11:20;;;;;;;;;;;;;;;7.45;51.29;102138.00;5037510;28;19921;-55
2022/12/01 09:13:46;;;;;;;;;;;;;;;7.52;51.17;102141.63;5037617;28;20404;-55
2022/12/01 09:16:12;;;;;;;;;;;;;;;7.59;51.31;102136.53;5037345;28;20400;-55
2022/12/01 09:18:38;;;;;;;;;;;;;;;7.60;50.97;102143.53;5037124;28;19917;-56
2022/12/01 09:21:17;;;;;;;;;;;;;;;7.72;51.06;102136.75;5036967;28;19925;-57
2022/12/01 09:23:42;;;;;;;;;;;;;;;7.75;50.85;102140.31;5037242;28;19948;-53
2022/12/01 09:26:08;;;;;;;;;;;;;;;7.64;50.55;102128.78;5037067;28;19979;-55
2022/12/01 09:28:34;;;;;;;;;;;;;;;7.76;50.58;102128.13;5037078;28;20384;-55
2022/12/01 09:31:17;;;;;;;;;;;;;;;7.63;50.47;102134.88;5036860;28;19917;-54
2022/12/01 09:33:43;;;;;;;;;;;;;;;7.65;50.53;102134.03;5036871;28;19937;-55
2022/12/01 09:36:09;;;;;;;;;;;;;;;7.54;50.55;102126.81;5036969;28;19917;-55
2022/12/01 09:38:35;;;;;;;;;;;;;;;7.57;50.87;102132.13;5037014;28;19921;-54
2022/12/01 09:41:21;;;;;;;;;;;;;;;7.52;50.91;102128.53;5036821;28;20412;-54
2022/12/01 09:43:58;;;;;;;;;;;;;;;7.53;50.91;102125.06;5036250;28;19921;-55
2022/12/01 09:46:35;;;;;;;;;;;;;;;7.55;50.90;102133.84;5042683;28;19947;-55
2022/12/01 09:49:02;;;;;;;;;;;;;;;7.52;50.78;102129.44;5051137;28;19943;-56
2022/12/01 09:51:27;;;;;;;;;;;;;;;7.62;50.71;102126.13;5039281;28;19925;-55
2022/12/01 09:53:55;;;;;;;;;;;;;;;7.71;50.61;102135.00;5038560;28;20426;-54
2022/12/01 09:56:25;;;;;;;;;;;;;;;7.77;50.44;102128.13;5038289;28;20439;-56
2022/12/01 09:59:00;;;;;;;;;;;;;;;7.67;50.65;102127.97;5052072;28;20327;-56
2022/12/01 10:01:46;;;;;;;;;;;;;;;7.70;50.62;102125.38;5052036;28;19921;-56
2022/12/01 10:04:22;;;;;;;;;;;;;;;7.70;50.28;102133.22;5039168;28;20380;-55
2022/12/01 10:06:47;;;;;;;;;;;;;;;7.76;50.74;102128.13;5050314;28;19921;-56
2022/12/01 10:09:21;;;;;;;;;;;;;;;7.73;50.76;102133.28;5052789;28;19994;-55
2022/12/01 10:11:48;;;;;;;;;;;;;;;7.80;51.10;102124.69;5047687;28;19924;-54
2022/12/01 10:14:16;;;;;;;;;;;;;;;7.85;50.74;102128.25;5045501;28;19924;-54
2022/12/01 10:17:02;;;;;;;;;;;;;;;7.92;50.63;102129.25;5050722;28;19921;-51
2022/12/01 10:19:48;;;;;;;;;;;;;;;7.96;51.93;102120.59;5051279;28;19920;-54
2022/12/01 10:22:22;;;;;;;;;;;;;;;7.99;52.22;102120.66;5037790;28;19979;-57
2022/12/01 10:24:54;;;;;;;;;;;;;;;8.06;49.69;102122.53;5051211;28;19927;-54
2022/12/01 10:27:38;;;;;;;;;;;;;;;8.07;49.76;102113.81;5052065;28;19967;-55
2022/12/01 10:30:03;;;;;;;;;;;;;;;7.98;49.65;102119.78;5051952;28;19925;-57
2022/12/01 10:32:35;;;;;;;;;;;;;;;8.07;49.90;102113.81;5051389;28;19921;-55
2022/12/01 10:35:01;;;;;;;;;;;;;;;8.09;50.07;102114.69;5049264;28;19920;-57
2022/12/01 10:37:27;;;;;;;;;;;;;;;8.12;49.64;102109.53;5048618;28;19932;-56
2022/12/01 10:39:57;;;;;;;;;;;;;;;8.08;49.16;102107.72;5038112;28;19928;-56
2022/12/01 10:42:35;;;;;;;;;;;;;;;8.04;49.71;102109.41;5037656;28;20388;-57
2022/12/01 10:45:03;;;;;;;;;;;;;;;8.05;49.93;102108.53;5037916;28;19960;-56
2022/12/01 10:47:28;;;;;;;;;;;;;;;8.04;49.51;102114.63;5044780;28;20032;-56
2022/12/01 10:49:55;;;;;;;;;;;;;;;8.01;49.72;102114.56;5048397;28;20415;-56
2022/12/01 10:52:30;;;;;;;;;;;;;;;8.00;49.99;102101.47;5040844;28;19939;-58
2022/12/01 10:54:55;;;;;;;;;;;;;;;8.03;50.18;102091.94;5051612;28;19920;-58
2022/12/01 10:57:20;;;;;;;;;;;;;;;8.06;50.45;102102.47;5050349;28;19924;-56
2022/12/01 10:59:48;;;;;;;;;;;;;;;8.09;50.24;102097.25;5046162;28;19925;-55
2022/12/01 11:02:16;;;;;;;;;;;;;;;8.04;50.10;102101.53;5051444;28;19921;-55
2022/12/01 11:04:52;;;;;;;;;;;;;;;8.01;50.91;102091.00;5040478;28;19964;-55
2022/12/01 11:07:22;;;;;;;;;;;;;;;7.99;50.36;102100.59;5040788;28;20004;-55
2022/12/01 11:09:56;;;;;;;;;;;;;;;8.01;50.47;102098.88;5050162;28;20039;-54
2022/12/01 11:12:22;;;;;;;;;;;;;;;7.91;49.94;102086.50;5039677;28;19924;-55
2022/12/01 11:14:49;;;;;;;;;;;;;;;7.97;49.89;102096.19;5044517;28;19925;-56
2022/12/01 11:17:21;;;;;;;;;;;;;;;7.78;50.14;102097.59;5044181;28;20004;-56
2022/12/01 11:19:46;;;;;;;;;;;;;;;7.91;50.96;102102.22;5037610;28;19956;-57
2022/12/01 11:22:32;;;;;;;;;;;;;;;7.93;50.42;102095.25;5046389;28;20380;-56
2022/12/01 11:24:59;;;;;;;;;;;;;;;7.85;50.53;102095.13;5041999;28;19925;-55
2022/12/01 11:27:33;;;;;;;;;;;;;;;7.80;50.69;102093.28;5039972;28;20027;-55
2022/12/01 11:30:04;;;;;;;;;;;;;;;7.85;50.70;102094.25;5036694;28;19921;-57
2022/12/01 11:32:31;;;;;;;;;;;;;;;7.78;50.59;102095.00;5047671;28;19920;-56
2022/12/01 11:35:26;;;;;;;;;;;;;;;7.87;50.80;102095.16;5038685;28;19927;-54
2022/12/01 11:37:53;;;;;;;;;;;;;;;7.78;50.74;102097.59;5035591;28;19921;-53
2022/12/01 11:40:18;;;;;;;;;;;;;;;7.78;51.21;102092.38;5050053;28;19944;-55
2022/12/01 11:42:47;;;;;;;;;;;;;;;7.70;51.47;102087.03;5047796;28;20377;-57
2022/12/01 11:45:21;;;;;;;;;;;;;;;7.75;51.10;102089.72;5049812;28;19924;-54
2022/12/01 11:47:59;;;;;;;;;;;;;;;7.73;51.23;102086.19;5037020;28;20277;-56
2022/12/01 11:50:26;;;;;;;;;;;;;;;7.61;51.34;102086.84;5038637;28;20010;-58
2022/12/01 11:52:51;;;;;;;;;;;;;;;7.68;51.44;102085.22;5045230;28;19925;-57
2022/12/01 11:55:21;;;;;;;;;;;;;;;7.67;51.28;102086.09;5042133;28;19925;-56
2022/12/01 11:57:50;;;;;;;;;;;;;;;7.68;51.53;102086.09;5039689;28;20338;-54
2022/12/01 12:00:16;;;;;;;;;;;;;;;7.69;51.30;102087.00;5037353;28;19921;-57
2022/12/01 12:02:55;;;;;;;;;;;;;;;7.77;51.31;102082.75;5037190;28;19928;-55
2022/12/01 12:05:23;;;;;;;;;;;;;;;7.80;51.09;102077.59;5049622;28;19928;-55
2022/12/01 12:07:58;;;;;;;;;;;;;;;7.82;51.37;102070.63;5049331;28;20380;-56
2022/12/01 12:10:23;;;;;;;;;;;;;;;7.84;51.16;102071.56;5050418;28;20361;-56
2022/12/01 12:12:51;;;;;;;;;;;;;;;7.86;51.48;102069.84;5042384;28;19928;-53
2022/12/01 12:15:41;;;;;;;;;;;;;;;7.80;50.80;102068.00;5036336;28;19925;-55
2022/12/01 12:18:22;;;;;;;;;;;;;;;7.69;51.15;102077.41;5033405;28;19921;-57
2022/12/01 12:20:53;;;;;;;;;;;;;;;7.70;51.38;102071.34;5038637;28;19921;-54
2022/12/01 12:23:37;;;;;;;;;;;;;;;7.68;51.27;102067.78;5043059;28;19917;-55
2022/12/01 12:26:12;;;;;;;;;;;;;;;7.71;51.29;102061.75;5044910;28;20034;-57
2022/12/01 12:28:37;;;;;;;;;;;;;;;7.80;51.34;102059.28;5036307;28;19921;-55
2022/12/01 12:31:15;;;;;;;;;;;;;;;7.76;50.87;102060.06;5036153;28;20004;-53
2022/12/01 12:33:40;;;;;;;;;;;;;;;7.83;50.50;102061.94;5043682;28;20396;-56
2022/12/01 12:36:30;;;;;;;;;;;;;;;7.83;50.41;102064.56;5037197;28;19971;-58
2022/12/01 12:38:59;;;;;;;;;;;;;;;7.72;50.70;102066.13;5042953;28;20396;-57
2022/12/01 12:41:28;;;;;;;;;;;;;;;7.65;50.85;102058.16;5034024;28;19917;-56
2022/12/01 12:43:53;;;;;;;;;;;;;;;7.72;50.87;102058.28;5042823;28;19924;-56
2022/12/01 12:46:31;;;;;;;;;;;;;;;7.78;51.15;102051.41;5042418;28;19924;-54
2022/12/01 12:48:59;;;;;;;;;;;;;;;7.79;50.85;102050.53;5048504;28;19921;-56
2022/12/01 12:51:29;;;;;;;;;;;;;;;7.80;50.86;102051.41;5035652;28;19928;-53
2022/12/01 12:54:17;;;;;;;;;;;;;;;7.79;50.95;102049.66;5035098;28;20423;-56
2022/12/01 12:56:47;;;;;;;;;;;;;;;7.81;51.02;102048.81;5035686;28;19921;-55
2022/12/01 12:59:16;;;;;;;;;;;;;;;7.76;50.67;102053.09;5036804;28;20376;-56
2022/12/01 13:01:56;;;;;;;;;;;;;;;7.80;51.01;102047.06;5035414;28;19927;-57
2022/12/01 13:04:24;;;;;;;;;;;;;;;7.77;51.08;102049.63;5044929;28;19922;-56